Flight Track Log - Related Links

Times and Time Zones

All times are in EST time to prevent confusion due to time zone crossing. See the N6630A flight status page for this flight to view local times or setup timezone preferences in your user account.


Time Position Orientation Groundspeed Altitude Reporting Facility
EST Latitude Longitude Course Direction KTS MPH feet Rate Location/Type
Sat 09:54:31 AM 28.8833 -81.4000 270° West 133 153 3,600  Level Orlando TRACON
Sat 09:55:31 AM 28.8833 -81.4500 270° West 146 168 3,400  Descending Orlando TRACON
Sat 09:56:32 AM 28.8500 -81.4667 204° Southwest 132 152 3,600 149 Climbing Orlando TRACON
Sat 09:57:32 AM 28.8167 -81.4667 180° South 133 153 3,700 50 Climbing Orlando TRACON
Sat 09:58:33 AM 28.7833 -81.4833 204° Southwest 134 154 3,700  Level Orlando TRACON
Sat 09:59:32 AM 28.7500 -81.5000 204° Southwest 135 155 3,700  Level Orlando TRACON
Sat 10:00:33 AM 28.7000 -81.5000 180° South 141 162 3,700 -50 Level Orlando TRACON
Sat 10:01:33 AM 28.6667 -81.5167 204° Southwest 141 162 3,600 -50 Descending Orlando TRACON
Sat 10:02:33 AM 28.6333 -81.5167 180° South 144 166 3,600  Level Orlando TRACON
Sat 10:03:33 AM 28.5833 -81.5333 196° South 140 161 3,600  Level Orlando TRACON
Sat 10:04:34 AM 28.5500 -81.5500 204° Southwest 140 161 3,600  Level Orlando TRACON
Sat 10:05:34 AM 28.5167 -81.5500 180° South 140 161 3,600  Level Orlando TRACON
Sat 10:06:34 AM 28.4833 -81.5667 204° Southwest 142 163 3,600  Level Orlando TRACON
Sat 10:07:34 AM 28.4333 -81.5667 180° South 142 163 3,600 248 Level Orlando TRACON
Sat 10:08:35 AM 28.4000 -81.5833 204° Southwest 135 155 4,100 446 Climbing Orlando TRACON
Sat 10:09:35 AM 28.3667 -81.5667 156° South 132 152 4,500 250 Climbing Orlando TRACON
Sat 10:10:35 AM 28.3167 -81.5667 180° South 133 153 4,600 50 Climbing Orlando TRACON
Sat 10:11:35 AM 28.2833 -81.5667 180° South 151 174 4,600  Level Orlando TRACON
Sat 10:12:36 AM 28.2333 -81.5667 180° South 148 170 4,600  Level Orlando TRACON
Sat 10:13:36 AM 28.2000 -81.5667 180° South 148 170 4,600  Level Orlando TRACON
Sat 10:14:36 AM 28.1500 -81.5667 180° South 148 170 4,600  Level Orlando TRACON
Sat 10:15:36 AM 28.1167 -81.5667 180° South 148 170 4,600  Level Orlando TRACON
Sat 10:16:37 AM 28.0833 -81.5667 180° South 150 173 4,600  Level Orlando TRACON
Sat 10:17:37 AM 28.0333 -81.5833 196° South 151 174 4,600  Level Orlando TRACON
Sat 10:18:37 AM 28.0000 -81.5833 180° South 161 185 4,600 -63 Level Orlando TRACON
Sat 10:19:12 AM 27.9744 -81.5869 187° South 147 169 4,500  Descending Miami Center
Sat 10:20:12 AM 27.9325 -81.5922 186° South 147 169 4,600 50 Climbing Miami Center
Sat 10:21:12 AM 27.8908 -81.5950 183° South 152 175 4,600 -50 Level Miami Center
Sat 10:22:12 AM 27.8492 -81.5933 178° South 152 175 4,500  Descending Miami Center
Sat 10:23:12 AM 27.8053 -81.5939 181° South 158 182 4,600  Climbing Miami Center
Sat 10:24:12 AM 27.7636 -81.5922 178° South 158 182 4,500 100 Descending Miami Center
Sat 10:25:12 AM 27.7219 -81.5928 181° South 158 182 4,800 450 Climbing Miami Center
Sat 10:26:12 AM 27.6822 -81.5889 175° South 158 182 5,400 350 Climbing Miami Center
Sat 10:27:12 AM 27.6467 -81.5919 184° South 147 169 5,500 50 Climbing Miami Center
Sat 10:28:12 AM 27.6028 -81.5972 186° South 147 169 5,500  Level Miami Center
Sat 10:29:12 AM 27.5606 -81.6072 192° South 152 175 5,500  Level Miami Center
Sat 10:30:12 AM 27.5167 -81.6122 186° South 158 182 5,500 50 Level Miami Center
Sat 10:31:12 AM 27.4725 -81.6247 194° South 158 182 5,600  Climbing Miami Center
Sat 10:32:12 AM 27.4264 -81.6250 180° South 158 182 5,500 -50 Descending Miami Center
Sat 10:33:12 AM 27.3806 -81.6278 183° South 158 182 5,500  Level Miami Center
Sat 10:34:12 AM 27.3367 -81.6258 178° South 163 188 5,500  Level Miami Center
Sat 10:35:12 AM 27.2908 -81.6217 175° South 163 188 5,500  Level Miami Center
Sat 10:36:12 AM 27.2450 -81.6197 178° South 158 182 5,500  Level Miami Center
Sat 10:37:12 AM 27.1969 -81.6225 183° South 158 182 5,500  Level Miami Center
Sat 10:38:12 AM 27.1511 -81.6231 181° South 158 182 5,500  Level Miami Center
Sat 10:39:12 AM 27.1072 -81.6236 181° South 158 182 5,500  Level Miami Center
Sat 10:40:12 AM 27.0611 -81.6239 180° South 158 182 5,500 50 Level Miami Center
Sat 10:41:12 AM 27.0131 -81.6267 183° South 158 182 5,600 50 Climbing Miami Center
Sat 10:42:12 AM 26.9669 -81.6317 186° South 158 182 5,600  Level Miami Center
Sat 10:43:12 AM 26.9250 -81.6394 189° South 163 188 5,600  Level Miami Center
Sat 10:44:12 AM 26.8831 -81.6469 189° South 157 181 5,600 -200 Level Miami Center
Sat 10:45:12 AM 26.8378 -81.6242 156° South 163 188 5,200 -350 Descending Miami Center
Sat 10:46:12 AM 26.7947 -81.6014 155° Southeast 174 200 4,900 -300 Descending Miami Center
Sat 10:48:00 AM 26.6978 -81.6278 185° South  Level Estimated
Sat 10:55:00 AM 26.3157 -81.7336 190° South  Level FlightAware Approximate
Sat 10:56:00 AM 26.2611 -81.7445 190° South  Level FlightAware Approximate
Sat 10:57:00 AM 26.2066 -81.7553 190° South  Level FlightAware Approximate
Sat 10:58:00 AM 26.1521 -81.7663 190° South  Level FlightAware Approximate
Sat 10:59:00 AM 26.1500 -81.7667 190° South  Level FlightAware Approximate
Sat 11:00:00 AM 26.1524 -81.7756 190° South  Level Estimated
Sat 11:01:00 AM 26.1524 -81.7756 190° South  Level Estimated
Sat 11:02:00 AM 26.1524 -81.7756 190° South  Level Estimated
Sat 11:03:00 AM 26.1524 -81.7756 190° South  Level Estimated
Sat 11:04:00 AM 26.1524 -81.7756 190° South  Level Estimated
Sat 11:05:00 AM 26.1524 -81.7756 190° South  Level Estimated
Sat 11:06:00 AM 26.1524 -81.7756 190° South  Level Estimated
Sat 11:07:00 AM 26.1524 -81.7756 190° South  Level Estimated
Sat 11:08:00 AM 26.1524 -81.7756 190° South  Level Estimated
Sat 11:09:00 AM 26.1524 -81.7756 190° South  Level Estimated
Sat 11:10:00 AM 26.1524 -81.7756 190° South  Level Estimated
Sat 11:11:00 AM 26.1524 -81.7756 190° South  Level Estimated
Sat 11:12:00 AM 26.1524 -81.7756 190° South  Level Estimated
Sat 11:13:00 AM 26.1524 -81.7756 190° South  Level Estimated
Sat 11:14:00 AM 26.1524 -81.7756 190° South  Level Estimated
Sat 11:15:00 AM 26.1524 -81.7756 190° South  Level Estimated

Login

Don't have an account? Register now (free) for customized features, flight alerts, and more!